sensor_id;sensor_type;location;lat;lon;timestamp;pressure;altitude;pressure_sealevel;temperature;humidity
13420;BME280;6781;58.440;15.470;2023-07-20T00:00:11;99891.66;;;12.67;100.00
13420;BME280;6781;58.440;15.470;2023-07-20T00:02:39;99910.47;;;12.61;100.00
13420;BME280;6781;58.440;15.470;2023-07-20T00:05:06;99871.00;;;12.48;100.00
13420;BME280;6781;58.440;15.470;2023-07-20T00:07:33;99899.09;;;12.62;100.00
13420;BME280;6781;58.440;15.470;2023-07-20T00:10:00;99886.63;;;12.48;100.00
13420;BME280;6781;58.440;15.470;2023-07-20T00:12:27;99865.31;;;12.26;100.00
13420;BME280;6781;58.440;15.470;2023-07-20T00:14:54;99892.13;;;12.45;100.00
13420;BME280;6781;58.440;15.470;2023-07-20T00:17:23;99885.66;;;12.49;100.00
13420;BME280;6781;58.440;15.470;2023-07-20T00:19:50;99821.84;;;11.93;100.00
13420;BME280;6781;58.440;15.470;2023-07-20T00:22:17;99891.00;;;12.47;100.00
13420;BME280;6781;58.440;15.470;2023-07-20T00:24:44;99927.13;;;12.32;100.00
13420;BME280;6781;58.440;15.470;2023-07-20T00:27:11;99732.81;;;11.37;100.00
13420;BME280;6781;58.440;15.470;2023-07-20T00:29:40;99653.19;;;10.75;100.00
13420;BME280;6781;58.440;15.470;2023-07-20T00:32:07;99895.31;;;12.21;100.00
13420;BME280;6781;58.440;15.470;2023-07-20T00:34:36;99907.34;;;12.39;100.00
13420;BME280;6781;58.440;15.470;2023-07-20T00:37:03;99901.34;;;12.39;100.00
13420;BME280;6781;58.440;15.470;2023-07-20T00:39:30;99769.78;;;11.49;100.00
13420;BME280;6781;58.440;15.470;2023-07-20T00:41:57;99772.75;;;11.54;100.00
13420;BME280;6781;58.440;15.470;2023-07-20T00:44:25;99915.16;;;12.39;100.00
13420;BME280;6781;58.440;15.470;2023-07-20T00:46:52;99881.75;;;12.09;100.00
13420;BME280;6781;58.440;15.470;2023-07-20T00:49:19;99907.00;;;12.34;100.00
13420;BME280;6781;58.440;15.470;2023-07-20T00:51:49;99846.19;;;11.92;100.00
13420;BME280;6781;58.440;15.470;2023-07-20T00:54:17;99902.97;;;12.22;100.00
13420;BME280;6781;58.440;15.470;2023-07-20T00:56:44;99845.03;;;11.77;100.00
13420;BME280;6781;58.440;15.470;2023-07-20T00:59:13;99910.41;;;12.17;100.00
13420;BME280;6781;58.440;15.470;2023-07-20T01:01:40;99809.22;;;11.35;100.00
13420;BME280;6781;58.440;15.470;2023-07-20T01:04:07;99724.16;;;11.01;100.00
13420;BME280;6781;58.440;15.470;2023-07-20T01:06:41;99917.53;;;12.15;100.00
13420;BME280;6781;58.440;15.470;2023-07-20T01:09:16;99771.06;;;11.18;100.00
13420;BME280;6781;58.440;15.470;2023-07-20T01:11:51;99901.59;;;12.10;100.00
13420;BME280;6781;58.440;15.470;2023-07-20T01:14:21;99702.31;;;10.76;100.00
13420;BME280;6781;58.440;15.470;2023-07-20T01:16:50;99885.22;;;11.82;100.00
13420;BME280;6781;58.440;15.470;2023-07-20T01:19:17;99861.84;;;11.82;100.00
13420;BME280;6781;58.440;15.470;2023-07-20T01:21:50;99909.41;;;12.10;100.00
13420;BME280;6781;58.440;15.470;2023-07-20T01:24:44;99744.88;;;10.84;100.00
13420;BME280;6781;58.440;15.470;2023-07-20T01:28:01;99911.63;;;12.05;100.00
13420;BME280;6781;58.440;15.470;2023-07-20T01:30:45;99914.59;;;12.10;100.00
13420;BME280;6781;58.440;15.470;2023-07-20T01:33:16;99886.50;;;11.96;100.00
13420;BME280;6781;58.440;15.470;2023-07-20T01:35:48;99859.13;;;11.74;100.00
13420;BME280;6781;58.440;15.470;2023-07-20T01:38:16;99844.06;;;11.60;100.00
13420;BME280;6781;58.440;15.470;2023-07-20T01:40:45;99922.31;;;12.02;100.00
13420;BME280;6781;58.440;15.470;2023-07-20T01:43:12;99911.22;;;11.82;100.00
13420;BME280;6781;58.440;15.470;2023-07-20T01:45:40;99753.84;;;10.89;100.00
13420;BME280;6781;58.440;15.470;2023-07-20T01:48:07;99795.47;;;11.25;100.00
13420;BME280;6781;58.440;15.470;2023-07-20T01:50:35;99728.75;;;10.90;100.00
13420;BME280;6781;58.440;15.470;2023-07-20T01:53:02;99913.25;;;12.06;100.00
13420;BME280;6781;58.440;15.470;2023-07-20T01:55:29;99887.09;;;11.90;100.00
13420;BME280;6781;58.440;15.470;2023-07-20T01:57:56;99835.06;;;11.54;100.00
13420;BME280;6781;58.440;15.470;2023-07-20T02:00:25;99767.50;;;11.19;100.00
13420;BME280;6781;58.440;15.470;2023-07-20T02:02:52;99863.13;;;11.68;100.00
13420;BME280;6781;58.440;15.470;2023-07-20T02:07:58;99924.69;;;12.13;100.00
13420;BME280;6781;58.440;15.470;2023-07-20T02:10:26;99824.97;;;11.51;100.00
13420;BME280;6781;58.440;15.470;2023-07-20T02:12:52;99917.84;;;12.12;100.00
13420;BME280;6781;58.440;15.470;2023-07-20T02:15:19;99924.19;;;12.10;100.00
13420;BME280;6781;58.440;15.470;2023-07-20T02:17:46;99894.81;;;11.82;100.00
13420;BME280;6781;58.440;15.470;2023-07-20T02:20:13;99925.00;;;12.10;100.00
13420;BME280;6781;58.440;15.470;2023-07-20T02:22:40;99727.25;;;10.87;100.00
13420;BME280;6781;58.440;15.470;2023-07-20T02:25:09;99917.25;;;12.00;100.00
13420;BME280;6781;58.440;15.470;2023-07-20T02:27:37;99790.25;;;11.07;100.00
13420;BME280;6781;58.440;15.470;2023-07-20T02:30:05;99936.78;;;12.04;100.00
13420;BME280;6781;58.440;15.470;2023-07-20T02:32:32;99831.13;;;11.23;100.00
13420;BME280;6781;58.440;15.470;2023-07-20T02:34:59;99916.63;;;11.61;100.00
13420;BME280;6781;58.440;15.470;2023-07-20T02:37:26;99959.56;;;11.93;100.00
13420;BME280;6781;58.440;15.470;2023-07-20T02:39:53;99960.69;;;11.90;100.00
13420;BME280;6781;58.440;15.470;2023-07-20T02:42:22;99937.88;;;11.74;100.00
13420;BME280;6781;58.440;15.470;2023-07-20T02:44:51;99967.56;;;11.82;100.00
13420;BME280;6781;58.440;15.470;2023-07-20T02:47:18;99768.84;;;10.58;100.00
13420;BME280;6781;58.440;15.470;2023-07-20T02:49:45;99929.69;;;11.42;100.00
13420;BME280;6781;58.440;15.470;2023-07-20T02:52:12;99934.31;;;11.48;100.00
13420;BME280;6781;58.440;15.470;2023-07-20T02:54:39;99983.44;;;11.79;100.00
13420;BME280;6781;58.440;15.470;2023-07-20T02:57:06;99985.31;;;11.77;100.00
13420;BME280;6781;58.440;15.470;2023-07-20T02:59:34;99985.59;;;11.73;100.00
13420;BME280;6781;58.440;15.470;2023-07-20T03:02:01;99987.53;;;11.71;100.00
13420;BME280;6781;58.440;15.470;2023-07-20T03:04:28;99857.19;;;10.94;100.00
13420;BME280;6781;58.440;15.470;2023-07-20T03:06:55;99989.16;;;11.72;100.00
13420;BME280;6781;58.440;15.470;2023-07-20T03:09:22;100000.38;;;11.73;100.00
13420;BME280;6781;58.440;15.470;2023-07-20T03:11:50;99998.59;;;11.73;100.00
13420;BME280;6781;58.440;15.470;2023-07-20T03:14:17;99796.84;;;10.55;100.00
13420;BME280;6781;58.440;15.470;2023-07-20T03:16:45;99997.63;;;11.74;100.00
13420;BME280;6781;58.440;15.470;2023-07-20T03:19:12;99988.09;;;11.65;100.00
13420;BME280;6781;58.440;15.470;2023-07-20T03:21:39;99999.78;;;11.89;100.00
13420;BME280;6781;58.440;15.470;2023-07-20T03:24:06;100001.16;;;11.93;100.00
13420;BME280;6781;58.440;15.470;2023-07-20T03:26:34;99918.06;;;11.46;100.00
13420;BME280;6781;58.440;15.470;2023-07-20T03:29:01;99945.97;;;11.71;100.00
13420;BME280;6781;58.440;15.470;2023-07-20T03:31:28;99915.84;;;11.51;100.00
13420;BME280;6781;58.440;15.470;2023-07-20T03:33:57;99993.25;;;12.12;100.00
13420;BME280;6781;58.440;15.470;2023-07-20T03:36:24;99970.72;;;12.03;100.00
13420;BME280;6781;58.440;15.470;2023-07-20T03:38:51;99986.47;;;12.19;100.00
13420;BME280;6781;58.440;15.470;2023-07-20T03:41:18;99978.38;;;12.04;100.00
13420;BME280;6781;58.440;15.470;2023-07-20T03:43:45;100015.69;;;12.31;100.00
13420;BME280;6781;58.440;15.470;2023-07-20T03:46:12;99972.75;;;12.09;100.00
13420;BME280;6781;58.440;15.470;2023-07-20T03:48:39;99984.63;;;12.29;100.00
13420;BME280;6781;58.440;15.470;2023-07-20T03:51:07;99998.09;;;12.43;100.00
13420;BME280;6781;58.440;15.470;2023-07-20T03:53:34;99904.03;;;11.94;100.00
13420;BME280;6781;58.440;15.470;2023-07-20T03:56:01;99988.56;;;12.69;100.00
13420;BME280;6781;58.440;15.470;2023-07-20T03:58:28;100008.13;;;12.91;100.00
13420;BME280;6781;58.440;15.470;2023-07-20T04:00:57;100025.50;;;13.08;100.00
13420;BME280;6781;58.440;15.470;2023-07-20T04:03:25;99987.00;;;12.94;100.00
13420;BME280;6781;58.440;15.470;2023-07-20T04:05:53;99922.34;;;12.63;100.00
13420;BME280;6781;58.440;15.470;2023-07-20T04:08:22;100023.56;;;13.54;100.00
13420;BME280;6781;58.440;15.470;2023-07-20T04:10:49;99929.75;;;13.20;100.00
13420;BME280;6781;58.440;15.470;2023-07-20T04:13:17;100015.41;;;13.83;100.00
13420;BME280;6781;58.440;15.470;2023-07-20T04:15:44;99988.63;;;13.73;100.00
13420;BME280;6781;58.440;15.470;2023-07-20T04:18:11;99882.66;;;13.13;100.00
13420;BME280;6781;58.440;15.470;2023-07-20T04:20:38;99987.53;;;13.91;100.00
13420;BME280;6781;58.440;15.470;2023-07-20T04:23:05;99944.88;;;13.84;100.00
13420;BME280;6781;58.440;15.470;2023-07-20T04:25:33;99986.19;;;14.29;100.00
13420;BME280;6781;58.440;15.470;2023-07-20T04:28:05;99871.31;;;13.56;100.00
13420;BME280;6781;58.440;15.470;2023-07-20T04:30:34;99896.00;;;13.86;100.00
13420;BME280;6781;58.440;15.470;2023-07-20T04:33:02;99972.56;;;14.44;100.00
13420;BME280;6781;58.440;15.470;2023-07-20T04:35:50;99960.31;;;14.44;100.00
13420;BME280;6781;58.440;15.470;2023-07-20T04:38:17;99922.91;;;14.19;100.00
13420;BME280;6781;58.440;15.470;2023-07-20T04:40:47;99786.91;;;13.33;100.00
13420;BME280;6781;58.440;15.470;2023-07-20T04:43:14;99878.22;;;13.98;100.00
13420;BME280;6781;58.440;15.470;2023-07-20T04:45:41;99792.66;;;13.53;100.00
13420;BME280;6781;58.440;15.470;2023-07-20T04:48:10;99944.81;;;14.43;100.00
13420;BME280;6781;58.440;15.470;2023-07-20T04:50:37;99953.47;;;14.59;100.00
13420;BME280;6781;58.440;15.470;2023-07-20T04:53:04;99801.31;;;13.70;100.00
13420;BME280;6781;58.440;15.470;2023-07-20T04:55:31;99883.16;;;14.33;100.00
13420;BME280;6781;58.440;15.470;2023-07-20T04:58:01;99864.25;;;14.31;100.00
13420;BME280;6781;58.440;15.470;2023-07-20T05:00:28;99931.44;;;14.94;100.00
13420;BME280;6781;58.440;15.470;2023-07-20T05:02:56;99892.28;;;14.78;100.00
13420;BME280;6781;58.440;15.470;2023-07-20T05:05:23;99882.03;;;14.52;100.00
13420;BME280;6781;58.440;15.470;2023-07-20T05:07:50;99916.44;;;14.88;100.00
13420;BME280;6781;58.440;15.470;2023-07-20T05:10:17;99880.91;;;14.55;100.00
13420;BME280;6781;58.440;15.470;2023-07-20T05:12:44;99721.16;;;13.39;100.00
13420;BME280;6781;58.440;15.470;2023-07-20T05:15:12;99732.25;;;13.65;100.00
13420;BME280;6781;58.440;15.470;2023-07-20T05:17:40;99916.44;;;14.80;100.00
13420;BME280;6781;58.440;15.470;2023-07-20T05:20:07;99926.03;;;14.96;100.00
13420;BME280;6781;58.440;15.470;2023-07-20T05:22:37;99843.88;;;14.51;100.00
13420;BME280;6781;58.440;15.470;2023-07-20T05:25:07;99929.16;;;14.83;100.00
13420;BME280;6781;58.440;15.470;2023-07-20T05:27:35;99855.44;;;14.41;100.00
13420;BME280;6781;58.440;15.470;2023-07-20T05:30:03;99894.75;;;14.63;100.00
13420;BME280;6781;58.440;15.470;2023-07-20T05:32:32;99841.59;;;14.56;100.00
13420;BME280;6781;58.440;15.470;2023-07-20T05:34:59;99845.16;;;14.72;100.00
13420;BME280;6781;58.440;15.470;2023-07-20T05:37:26;99905.94;;;15.13;100.00
13420;BME280;6781;58.440;15.470;2023-07-20T05:39:53;99909.19;;;15.23;100.00
13420;BME280;6781;58.440;15.470;2023-07-20T05:42:21;99759.75;;;14.00;100.00
13420;BME280;6781;58.440;15.470;2023-07-20T05:44:48;99910.00;;;15.15;100.00
13420;BME280;6781;58.440;15.470;2023-07-20T05:47:18;99763.34;;;14.24;100.00
13420;BME280;6781;58.440;15.470;2023-07-20T05:49:47;99919.25;;;15.34;100.00
13420;BME280;6781;58.440;15.470;2023-07-20T05:52:14;99808.16;;;15.07;100.00
13420;BME280;6781;58.440;15.470;2023-07-20T05:54:41;99790.38;;;15.11;100.00
13420;BME280;6781;58.440;15.470;2023-07-20T05:57:08;99879.53;;;15.78;100.00
13420;BME280;6781;58.440;15.470;2023-07-20T05:59:35;99839.84;;;15.43;100.00
13420;BME280;6781;58.440;15.470;2023-07-20T06:02:04;99756.69;;;14.85;100.00
13420;BME280;6781;58.440;15.470;2023-07-20T06:04:31;99837.63;;;15.63;100.00
13420;BME280;6781;58.440;15.470;2023-07-20T06:06:59;99868.38;;;15.84;100.00
13420;BME280;6781;58.440;15.470;2023-07-20T06:09:26;99845.38;;;15.79;100.00
13420;BME280;6781;58.440;15.470;2023-07-20T06:11:54;99857.69;;;16.16;100.00
13420;BME280;6781;58.440;15.470;2023-07-20T06:14:22;99837.94;;;16.14;100.00
13420;BME280;6781;58.440;15.470;2023-07-20T06:16:48;99840.25;;;16.09;100.00
13420;BME280;6781;58.440;15.470;2023-07-20T06:19:16;99810.84;;;16.07;100.00
13420;BME280;6781;58.440;15.470;2023-07-20T06:21:43;99778.31;;;16.24;100.00
13420;BME280;6781;58.440;15.470;2023-07-20T06:24:11;99551.41;;;15.07;100.00
13420;BME280;6781;58.440;15.470;2023-07-20T06:26:38;99805.13;;;16.78;100.00
13420;BME280;6781;58.440;15.470;2023-07-20T06:29:05;99820.13;;;16.84;100.00
13420;BME280;6781;58.440;15.470;2023-07-20T06:31:37;99767.72;;;16.55;100.00
13420;BME280;6781;58.440;15.470;2023-07-20T06:34:04;99794.63;;;17.08;100.00
13420;BME280;6781;58.440;15.470;2023-07-20T06:36:31;99792.81;;;17.23;100.00
13420;BME280;6781;58.440;15.470;2023-07-20T06:38:58;99772.59;;;17.38;100.00
13420;BME280;6781;58.440;15.470;2023-07-20T06:41:27;99703.63;;;16.80;100.00
13420;BME280;6781;58.440;15.470;2023-07-20T06:43:54;99754.72;;;17.06;100.00
13420;BME280;6781;58.440;15.470;2023-07-20T06:46:24;99722.94;;;16.79;100.00
13420;BME280;6781;58.440;15.470;2023-07-20T06:48:51;99697.22;;;16.53;100.00
13420;BME280;6781;58.440;15.470;2023-07-20T06:51:19;99747.88;;;16.75;100.00
13420;BME280;6781;58.440;15.470;2023-07-20T06:53:46;99579.66;;;15.63;100.00
13420;BME280;6781;58.440;15.470;2023-07-20T06:56:13;99611.91;;;15.56;100.00
13420;BME280;6781;58.440;15.470;2023-07-20T06:58:41;99733.56;;;16.19;100.00
13420;BME280;6781;58.440;15.470;2023-07-20T07:01:08;99606.38;;;15.13;100.00
13420;BME280;6781;58.440;15.470;2023-07-20T07:03:35;99723.94;;;15.82;100.00
13420;BME280;6781;58.440;15.470;2023-07-20T07:06:03;99757.22;;;16.40;100.00
13420;BME280;6781;58.440;15.470;2023-07-20T07:08:30;99760.13;;;16.60;100.00
13420;BME280;6781;58.440;15.470;2023-07-20T07:10:57;99754.53;;;16.63;100.00
13420;BME280;6781;58.440;15.470;2023-07-20T07:13:24;99742.16;;;16.57;100.00
13420;BME280;6781;58.440;15.470;2023-07-20T07:15:53;99735.97;;;16.73;100.00
13420;BME280;6781;58.440;15.470;2023-07-20T07:18:20;99656.69;;;16.35;100.00
13420;BME280;6781;58.440;15.470;2023-07-20T07:20:53;99740.66;;;16.77;100.00
13420;BME280;6781;58.440;15.470;2023-07-20T07:23:20;99606.63;;;16.23;100.00
13420;BME280;6781;58.440;15.470;2023-07-20T07:25:47;99722.63;;;17.04;100.00
13420;BME280;6781;58.440;15.470;2023-07-20T07:28:14;99745.38;;;17.39;100.00
13420;BME280;6781;58.440;15.470;2023-07-20T07:30:43;99714.78;;;17.46;100.00
13420;BME280;6781;58.440;15.470;2023-07-20T07:33:14;99698.44;;;17.87;100.00
13420;BME280;6781;58.440;15.470;2023-07-20T07:35:41;99701.94;;;18.29;100.00
13420;BME280;6781;58.440;15.470;2023-07-20T07:38:08;99662.47;;;18.50;100.00
13420;BME280;6781;58.440;15.470;2023-07-20T07:40:35;99685.06;;;18.85;100.00
13420;BME280;6781;58.440;15.470;2023-07-20T07:43:02;99660.88;;;19.23;100.00
13420;BME280;6781;58.440;15.470;2023-07-20T07:45:30;99458.94;;;17.58;100.00
13420;BME280;6781;58.440;15.470;2023-07-20T07:47:59;99657.53;;;18.68;100.00
13420;BME280;6781;58.440;15.470;2023-07-20T07:50:28;99628.44;;;18.29;100.00
13420;BME280;6781;58.440;15.470;2023-07-20T07:52:55;99654.19;;;18.53;100.00
13420;BME280;6781;58.440;15.470;2023-07-20T07:55:22;99656.94;;;18.32;100.00
13420;BME280;6781;58.440;15.470;2023-07-20T07:57:49;99651.78;;;18.58;100.00
13420;BME280;6781;58.440;15.470;2023-07-20T08:00:17;99587.00;;;18.17;100.00
13420;BME280;6781;58.440;15.470;2023-07-20T08:02:44;99646.00;;;18.69;100.00
13420;BME280;6781;58.440;15.470;2023-07-20T08:05:11;99617.78;;;18.98;100.00
13420;BME280;6781;58.440;15.470;2023-07-20T08:07:40;99549.84;;;19.08;100.00
13420;BME280;6781;58.440;15.470;2023-07-20T08:10:08;99573.72;;;19.00;100.00
13420;BME280;6781;58.440;15.470;2023-07-20T08:12:35;99620.03;;;19.27;100.00
13420;BME280;6781;58.440;15.470;2023-07-20T08:15:03;99560.78;;;19.05;100.00
13420;BME280;6781;58.440;15.470;2023-07-20T08:17:30;99550.03;;;19.39;100.00
13420;BME280;6781;58.440;15.470;2023-07-20T08:19:57;99593.19;;;20.23;100.00
13420;BME280;6781;58.440;15.470;2023-07-20T08:22:24;99609.69;;;20.56;100.00
13420;BME280;6781;58.440;15.470;2023-07-20T08:24:53;99528.31;;;20.41;100.00
13420;BME280;6781;58.440;15.470;2023-07-20T08:27:20;99585.13;;;20.94;100.00
13420;BME280;6781;58.440;15.470;2023-07-20T08:29:47;99602.84;;;20.49;100.00
13420;BME280;6781;58.440;15.470;2023-07-20T08:32:15;99610.59;;;20.24;100.00
13420;BME280;6781;58.440;15.470;2023-07-20T08:34:42;99588.63;;;19.98;100.00
13420;BME280;6781;58.440;15.470;2023-07-20T08:37:09;99503.16;;;20.01;100.00
13420;BME280;6781;58.440;15.470;2023-07-20T08:39:36;99609.34;;;20.46;100.00
13420;BME280;6781;58.440;15.470;2023-07-20T08:42:05;99463.84;;;19.41;100.00
13420;BME280;6781;58.440;15.470;2023-07-20T08:44:33;99533.28;;;20.11;100.00
13420;BME280;6781;58.440;15.470;2023-07-20T08:47:01;99597.34;;;21.44;100.00
13420;BME280;6781;58.440;15.470;2023-07-20T08:49:29;99547.91;;;21.33;100.00
13420;BME280;6781;58.440;15.470;2023-07-20T08:51:58;99588.59;;;21.19;100.00
13420;BME280;6781;58.440;15.470;2023-07-20T08:54:29;99599.53;;;20.91;100.00
13420;BME280;6781;58.440;15.470;2023-07-20T08:56:58;99555.47;;;20.73;100.00
13420;BME280;6781;58.440;15.470;2023-07-20T08:59:29;99601.63;;;20.51;100.00
13420;BME280;6781;58.440;15.470;2023-07-20T09:01:58;99590.13;;;20.77;100.00
13420;BME280;6781;58.440;15.470;2023-07-20T09:04:25;99475.19;;;20.94;100.00
13420;BME280;6781;58.440;15.470;2023-07-20T09:06:52;99585.56;;;22.27;100.00
13420;BME280;6781;58.440;15.470;2023-07-20T09:09:19;99592.03;;;22.13;100.00
13420;BME280;6781;58.440;15.470;2023-07-20T09:11:47;99568.44;;;22.59;100.00
13420;BME280;6781;58.440;15.470;2023-07-20T09:14:15;99487.75;;;22.45;95.41
13420;BME280;6781;58.440;15.470;2023-07-20T09:16:51;99570.66;;;23.16;91.34
13420;BME280;6781;58.440;15.470;2023-07-20T09:19:19;99581.75;;;22.83;90.31
13420;BME280;6781;58.440;15.470;2023-07-20T09:21:46;99582.41;;;22.18;91.19
13420;BME280;6781;58.440;15.470;2023-07-20T09:24:13;99570.44;;;21.97;90.80
13420;BME280;6781;58.440;15.470;2023-07-20T09:26:41;99461.78;;;20.96;90.95
13420;BME280;6781;58.440;15.470;2023-07-20T09:29:09;99601.81;;;21.87;91.80
13420;BME280;6781;58.440;15.470;2023-07-20T09:31:36;99553.56;;;22.17;92.56
13420;BME280;6781;58.440;15.470;2023-07-20T09:34:05;99592.63;;;22.74;92.15
13420;BME280;6781;58.440;15.470;2023-07-20T09:36:33;99412.41;;;21.94;89.63
13420;BME280;6781;58.440;15.470;2023-07-20T09:39:02;99534.44;;;23.28;88.37
13420;BME280;6781;58.440;15.470;2023-07-20T09:41:29;99577.13;;;24.01;88.21
13420;BME280;6781;58.440;15.470;2023-07-20T09:43:56;99557.41;;;22.92;85.46
13420;BME280;6781;58.440;15.470;2023-07-20T09:46:23;99576.91;;;23.45;85.98
13420;BME280;6781;58.440;15.470;2023-07-20T09:48:54;99522.25;;;23.15;88.33
13420;BME280;6781;58.440;15.470;2023-07-20T09:51:23;99547.31;;;23.13;86.18
13420;BME280;6781;58.440;15.470;2023-07-20T09:53:52;99583.56;;;22.40;84.86
13420;BME280;6781;58.440;15.470;2023-07-20T09:56:22;99567.25;;;22.55;87.36
13420;BME280;6781;58.440;15.470;2023-07-20T09:58:52;99591.13;;;22.19;85.18
13420;BME280;6781;58.440;15.470;2023-07-20T10:01:21;99572.75;;;23.25;86.26
13420;BME280;6781;58.440;15.470;2023-07-20T10:03:51;99457.59;;;22.34;81.31
13420;BME280;6781;58.440;15.470;2023-07-20T10:06:26;99487.59;;;23.28;82.61
13420;BME280;6781;58.440;15.470;2023-07-20T10:08:56;99573.09;;;23.52;78.50
13420;BME280;6781;58.440;15.470;2023-07-20T10:11:29;99575.88;;;23.46;80.00
13420;BME280;6781;58.440;15.470;2023-07-20T10:13:59;99558.47;;;23.96;81.36
13420;BME280;6781;58.440;15.470;2023-07-20T10:16:29;99563.16;;;24.46;79.39
13420;BME280;6781;58.440;15.470;2023-07-20T10:19:03;99565.41;;;24.54;77.98
13420;BME280;6781;58.440;15.470;2023-07-20T10:21:35;99496.81;;;23.14;76.49
13420;BME280;6781;58.440;15.470;2023-07-20T10:24:05;99536.25;;;22.92;77.11
13420;BME280;6781;58.440;15.470;2023-07-20T10:26:32;99456.03;;;22.68;78.14
13420;BME280;6781;58.440;15.470;2023-07-20T10:29:09;99463.56;;;23.07;77.58
13420;BME280;6781;58.440;15.470;2023-07-20T10:31:40;99517.06;;;23.20;76.02
13420;BME280;6781;58.440;15.470;2023-07-20T10:34:09;99604.22;;;23.68;78.38
13420;BME280;6781;58.440;15.470;2023-07-20T10:36:45;99566.31;;;23.91;79.27
13420;BME280;6781;58.440;15.470;2023-07-20T10:39:24;99448.59;;;21.21;74.84
13420;BME280;6781;58.440;15.470;2023-07-20T10:42:00;99394.00;;;21.03;78.16
13420;BME280;6781;58.440;15.470;2023-07-20T10:44:27;99554.63;;;22.57;77.25
13420;BME280;6781;58.440;15.470;2023-07-20T10:46:59;99569.38;;;22.95;78.14
13420;BME280;6781;58.440;15.470;2023-07-20T10:49:26;99579.19;;;23.29;76.88
13420;BME280;6781;58.440;15.470;2023-07-20T10:51:58;99408.84;;;22.84;77.06
13420;BME280;6781;58.440;15.470;2023-07-20T10:54:46;99539.72;;;24.72;76.38
13420;BME280;6781;58.440;15.470;2023-07-20T10:57:23;99552.03;;;24.78;73.53
13420;BME280;6781;58.440;15.470;2023-07-20T10:59:50;99464.22;;;24.00;71.73
13420;BME280;6781;58.440;15.470;2023-07-20T11:02:18;99561.88;;;24.94;73.58
13420;BME280;6781;58.440;15.470;2023-07-20T11:04:47;99558.56;;;24.87;73.34
13420;BME280;6781;58.440;15.470;2023-07-20T11:07:37;99563.84;;;24.13;72.23
13420;BME280;6781;58.440;15.470;2023-07-20T11:10:14;99578.78;;;22.91;73.38
13420;BME280;6781;58.440;15.470;2023-07-20T11:12:41;99532.84;;;22.73;73.42
13420;BME280;6781;58.440;15.470;2023-07-20T11:15:44;99448.41;;;22.37;74.95
13420;BME280;6781;58.440;15.470;2023-07-20T11:18:12;99589.09;;;22.21;73.32
13420;BME280;6781;58.440;15.470;2023-07-20T11:20:39;99506.38;;;21.47;74.86
13420;BME280;6781;58.440;15.470;2023-07-20T11:23:09;99476.66;;;20.90;76.71
13420;BME280;6781;58.440;15.470;2023-07-20T11:25:37;99571.19;;;22.04;79.09
13420;BME280;6781;58.440;15.470;2023-07-20T11:28:09;99459.97;;;20.46;80.45
13420;BME280;6781;58.440;15.470;2023-07-20T11:30:38;99595.72;;;21.43;80.51
13420;BME280;6781;58.440;15.470;2023-07-20T11:33:08;99602.09;;;21.79;82.86
13420;BME280;6781;58.440;15.470;2023-07-20T11:35:36;99476.88;;;20.89;83.15
13420;BME280;6781;58.440;15.470;2023-07-20T11:38:03;99626.09;;;21.53;84.07
13420;BME280;6781;58.440;15.470;2023-07-20T11:40:31;99589.47;;;21.63;82.91
13420;BME280;6781;58.440;15.470;2023-07-20T11:42:58;99599.28;;;21.56;82.01
13420;BME280;6781;58.440;15.470;2023-07-20T11:45:25;99610.91;;;21.23;86.05
13420;BME280;6781;58.440;15.470;2023-07-20T11:47:58;99601.53;;;21.27;88.37
13420;BME280;6781;58.440;15.470;2023-07-20T11:50:25;99615.09;;;21.56;87.04
13420;BME280;6781;58.440;15.470;2023-07-20T11:52:52;99589.78;;;21.73;85.58
13420;BME280;6781;58.440;15.470;2023-07-20T11:55:20;99552.66;;;21.86;86.58
13420;BME280;6781;58.440;15.470;2023-07-20T11:58:02;99549.59;;;21.28;83.65
13420;BME280;6781;58.440;15.470;2023-07-20T12:00:29;99466.53;;;20.87;84.94
13420;BME280;6781;58.440;15.470;2023-07-20T12:02:57;99489.97;;;21.20;84.28
13420;BME280;6781;58.440;15.470;2023-07-20T12:05:24;99578.94;;;21.99;83.11
13420;BME280;6781;58.440;15.470;2023-07-20T12:07:51;99575.56;;;22.59;84.10
13420;BME280;6781;58.440;15.470;2023-07-20T12:10:24;99576.13;;;21.76;81.58
13420;BME280;6781;58.440;15.470;2023-07-20T12:12:51;99569.66;;;22.45;83.14
13420;BME280;6781;58.440;15.470;2023-07-20T12:15:22;99565.59;;;22.13;79.81
13420;BME280;6781;58.440;15.470;2023-07-20T12:17:51;99556.78;;;21.82;79.43
13420;BME280;6781;58.440;15.470;2023-07-20T12:20:29;99565.84;;;21.25;77.99
13420;BME280;6781;58.440;15.470;2023-07-20T12:22:59;99515.63;;;21.74;78.97
13420;BME280;6781;58.440;15.470;2023-07-20T12:25:39;99404.53;;;21.76;78.88
13420;BME280;6781;58.440;15.470;2023-07-20T12:28:07;99546.03;;;22.62;76.69
13420;BME280;6781;58.440;15.470;2023-07-20T12:30:36;99525.06;;;22.37;79.05
13420;BME280;6781;58.440;15.470;2023-07-20T12:33:04;99367.34;;;20.50;78.42
13420;BME280;6781;58.440;15.470;2023-07-20T12:35:31;99578.88;;;22.54;79.51
13420;BME280;6781;58.440;15.470;2023-07-20T12:37:59;99410.41;;;22.61;77.18
13420;BME280;6781;58.440;15.470;2023-07-20T12:40:31;99353.16;;;22.32;72.17
13420;BME280;6781;58.440;15.470;2023-07-20T12:42:58;99542.16;;;23.53;72.43
13420;BME280;6781;58.440;15.470;2023-07-20T12:45:25;99413.28;;;23.18;74.20
13420;BME280;6781;58.440;15.470;2023-07-20T12:47:54;99537.28;;;23.96;71.76
13420;BME280;6781;58.440;15.470;2023-07-20T12:50:22;99523.09;;;24.02;72.21
13420;BME280;6781;58.440;15.470;2023-07-20T12:52:49;99414.56;;;23.16;71.50
13420;BME280;6781;58.440;15.470;2023-07-20T12:55:16;99377.97;;;23.24;72.38
13420;BME280;6781;58.440;15.470;2023-07-20T12:57:43;99504.06;;;24.06;72.29
13420;BME280;6781;58.440;15.470;2023-07-20T13:00:11;99545.06;;;24.15;70.11
13420;BME280;6781;58.440;15.470;2023-07-20T13:02:38;99547.47;;;23.64;71.05